TimePST,TemperatureF,Dew PointF,Humidity,Sea Level PressureIn,VisibilityMPH,Wind Direction,Wind SpeedMPH,Gust SpeedMPH,PrecipitationIn,Events,Conditions,WindDirDegrees,DateUTC
12:53 AM,64.0,33.1,31,29.83,10.0,West,3.5,-,N/A,,Clear,270,2013-11-03 07:53:00
1:53 AM,60.1,37.9,44,29.82,10.0,NNW,4.6,-,N/A,,Clear,330,2013-11-03 08:53:00
1:53 AM,59.0,34.0,39,29.80,10.0,Calm,Calm,-,N/A,,Clear,0,2013-11-03 09:53:00
2:53 AM,62.1,32.0,32,29.79,10.0,West,4.6,-,N/A,,Clear,260,2013-11-03 10:53:00
3:53 AM,61.0,32.0,34,29.79,10.0,Variable,3.5,-,N/A,,Clear,0,2013-11-03 11:53:00
4:53 AM,61.0,32.0,34,29.78,10.0,West,5.8,-,N/A,,Clear,270,2013-11-03 12:53:00
5:53 AM,57.0,34.0,42,29.80,10.0,SSW,3.5,-,N/A,,Clear,200,2013-11-03 13:53:00
6:53 AM,60.1,32.0,35,29.82,10.0,North,4.6,-,N/A,,Clear,360,2013-11-03 14:53:00
7:53 AM,64.9,34.0,32,29.83,10.0,Calm,Calm,-,N/A,,Clear,0,2013-11-03 15:53:00
8:53 AM,73.0,30.0,20,29.83,10.0,NE,3.5,-,N/A,,Clear,40,2013-11-03 16:53:00
9:53 AM,75.0,30.0,19,29.83,10.0,Calm,Calm,-,N/A,,Clear,0,2013-11-03 17:53:00
10:53 AM,77.0,27.0,16,29.81,10.0,South,5.8,-,N/A,,Clear,170,2013-11-03 18:53:00
11:53 AM,80.1,27.0,14,29.79,10.0,ENE,5.8,-,N/A,,Clear,60,2013-11-03 19:53:00
12:53 PM,81.0,26.1,13,29.76,10.0,Variable,3.5,-,N/A,,Clear,0,2013-11-03 20:53:00
1:53 PM,81.0,24.1,12,29.75,10.0,NW,3.5,-,N/A,,Clear,310,2013-11-03 21:53:00
2:53 PM,82.9,23.0,11,29.73,10.0,NE,4.6,-,N/A,,Clear,40,2013-11-03 22:53:00
3:53 PM,80.1,33.1,18,29.72,10.0,WNW,6.9,-,N/A,,Clear,300,2013-11-03 23:53:00
4:53 PM,77.0,37.0,24,29.71,10.0,NW,9.2,-,N/A,,Clear,310,2013-11-04 00:53:00
5:53 PM,75.0,39.0,27,29.73,10.0,NW,10.4,-,N/A,,Clear,310,2013-11-04 01:53:00
6:53 PM,73.0,41.0,31,29.74,10.0,NW,15.0,19.6,N/A,,Clear,320,2013-11-04 02:53:00
7:53 PM,71.1,44.1,38,29.74,10.0,WNW,8.1,-,N/A,,Clear,290,2013-11-04 03:53:00
8:53 PM,69.1,42.1,38,29.75,10.0,West,5.8,-,N/A,,Clear,260,2013-11-04 04:53:00
9:53 PM,68.0,45.0,43,29.75,10.0,NW,10.4,-,N/A,,Clear,310,2013-11-04 05:53:00
10:53 PM,64.9,44.1,47,29.74,10.0,Calm,Calm,-,N/A,,Clear,0,2013-11-04 06:53:00